Time;durP1;ratioP1;P1;durP2;ratioP2;P2;SDS_P1;SDS_P2;PMS_P1;PMS_P2;Temp;Humidity;BMP_temperature;BMP_pressure;BME280_temperature;BME280_humidity;BME280_pressure;Samples;Min_cycle;Max_cycle;Signal;HPM_P1;HPM_P2
2020/12/02 00:01:25;;;;;;;7.13;5.03;;;7.00;99.90;;;;;;5079765;28;20985;-88
2020/12/02 00:04:16;;;;;;;5.70;4.00;;;6.90;99.90;;;;;;5080852;28;20534;-88
2020/12/02 00:06:43;;;;;;;4.53;3.70;;;6.90;99.90;;;;;;5058275;28;20485;-88
2020/12/02 00:09:13;;;;;;;5.77;3.70;;;7.00;99.90;;;;;;5074502;28;20443;-88
2020/12/02 00:11:40;;;;;;;8.00;5.37;;;7.00;99.90;;;;;;5076327;28;20474;-87
2020/12/02 00:14:09;;;;;;;6.50;4.77;;;7.00;99.90;;;;;;5075149;28;20455;-87
2020/12/02 00:16:36;;;;;;;9.50;5.37;;;7.00;99.90;;;;;;5075523;28;20454;-88
2020/12/02 00:19:03;;;;;;;6.13;4.80;;;6.90;99.90;;;;;;5076981;28;20458;-88
2020/12/02 00:21:32;;;;;;;8.30;5.60;;;7.00;99.90;;;;;;5077222;28;20450;-88
2020/12/02 00:23:59;;;;;;;9.87;6.67;;;7.00;99.90;;;;;;5089644;28;20459;-88
2020/12/02 00:26:28;;;;;;;9.50;6.33;;;6.90;99.90;;;;;;5076251;28;20503;-88
2020/12/02 00:28:55;;;;;;;11.20;6.70;;;6.90;99.90;;;;;;5075054;28;20454;-88
2020/12/02 00:31:24;;;;;;;9.00;5.90;;;7.00;99.90;;;;;;5070240;28;20539;-88
2020/12/02 00:33:53;;;;;;;9.17;5.97;;;7.00;99.90;;;;;;5073022;28;20917;-87
2020/12/02 00:36:20;;;;;;;10.30;7.13;;;7.00;99.90;;;;;;5075081;28;20451;-87
2020/12/02 00:38:46;;;;;;;10.23;6.50;;;7.00;99.90;;;;;;5076473;28;20450;-88
2020/12/02 00:41:13;;;;;;;8.93;5.77;;;7.00;99.90;;;;;;5077099;28;20984;-87
2020/12/02 00:43:40;;;;;;;9.67;6.87;;;7.10;99.90;;;;;;5075850;28;20461;-88
2020/12/02 00:46:09;;;;;;;11.23;7.50;;;7.10;99.90;;;;;;5075237;28;20451;-88
2020/12/02 00:48:36;;;;;;;12.77;8.00;;;7.10;99.90;;;;;;5069795;28;20501;-88
2020/12/02 00:51:05;;;;;;;18.20;10.70;;;7.10;99.90;;;;;;5081801;28;20485;-88
2020/12/02 00:53:34;;;;;;;21.53;11.17;;;7.10;99.90;;;;;;5076085;28;20455;-88
2020/12/02 00:56:01;;;;;;;17.30;10.53;;;7.00;99.90;;;;;;5083893;28;20451;-88
2020/12/02 00:58:38;;;;;;;24.27;13.37;;;7.10;99.90;;;;;;5074145;28;20461;-88
2020/12/02 01:01:07;;;;;;;36.83;15.07;;;7.00;99.90;;;;;;5072281;28;20497;-88
2020/12/02 01:03:35;;;;;;;24.23;12.67;;;7.00;99.90;;;;;;5078361;28;20908;-87
2020/12/02 01:06:05;;;;;;;23.80;12.53;;;6.90;99.90;;;;;;5075492;28;20446;-88
2020/12/02 01:08:34;;;;;;;24.87;13.40;;;6.90;99.90;;;;;;5094044;28;20442;-88
2020/12/02 01:11:06;;;;;;;30.07;16.20;;;6.90;99.90;;;;;;5082759;28;20971;-88
2020/12/02 01:13:34;;;;;;;32.73;16.03;;;6.90;99.90;;;;;;5076313;28;20457;-88
2020/12/02 01:16:05;;;;;;;24.13;13.77;;;6.80;99.90;;;;;;5076281;28;20503;-86
2020/12/02 01:18:31;;;;;;;25.97;14.03;;;6.70;99.90;;;;;;5057004;28;20477;-87
2020/12/02 01:21:12;;;;;;;33.23;16.03;;;6.70;99.90;;;;;;5079729;28;20461;-87
2020/12/02 01:23:39;;;;;;;34.20;16.23;;;6.70;99.90;;;;;;5074114;28;20566;-87
2020/12/02 01:26:06;;;;;;;32.30;17.30;;;6.70;99.90;;;;;;5082748;28;20527;-88
2020/12/02 01:28:36;;;;;;;35.33;18.03;;;6.70;99.90;;;;;;5073917;28;20489;-88
2020/12/02 01:31:03;;;;;;;34.30;18.00;;;6.70;99.90;;;;;;5073810;28;20608;-87
2020/12/02 01:33:29;;;;;;;47.63;21.00;;;6.70;99.90;;;;;;5074486;28;20527;-87
2020/12/02 01:35:56;;;;;;;43.50;21.50;;;6.70;99.90;;;;;;5094308;28;20457;-87
2020/12/02 01:38:32;;;;;;;35.20;19.67;;;6.70;99.90;;;;;;5075287;28;20455;-87
2020/12/02 01:40:59;;;;;;;39.83;19.40;;;6.80;99.90;;;;;;5059208;28;20815;-88
2020/12/02 01:43:25;;;;;;;34.60;18.97;;;6.80;99.90;;;;;;5055637;28;20458;-88
2020/12/02 01:45:55;;;;;;;35.23;19.10;;;6.90;99.90;;;;;;5086857;28;20449;-87
2020/12/02 01:48:47;;;;;;;34.73;20.00;;;6.90;99.90;;;;;;5082121;28;20465;-87
2020/12/02 01:51:25;;;;;;;40.43;19.93;;;6.90;99.90;;;;;;5070559;28;20816;-88
2020/12/02 01:53:59;;;;;;;35.80;20.00;;;6.90;99.90;;;;;;5072884;28;20478;-87
2020/12/02 01:56:32;;;;;;;36.53;20.17;;;6.90;99.90;;;;;;5065857;28;20482;-88
2020/12/02 01:59:08;;;;;;;33.73;20.43;;;6.90;99.90;;;;;;5076024;28;20428;-88
2020/12/02 02:01:51;;;;;;;40.57;23.07;;;6.90;99.90;;;;;;5076440;28;20488;-88
2020/12/02 02:04:22;;;;;;;35.67;20.43;;;6.80;99.90;;;;;;5083795;28;20483;-88
2020/12/02 02:07:03;;;;;;;33.70;19.47;;;6.80;99.90;;;;;;5096268;28;20503;-88
2020/12/02 02:09:31;;;;;;;33.83;18.87;;;6.90;99.90;;;;;;5096400;28;20496;-88
2020/12/02 02:12:20;;;;;;;30.83;18.30;;;7.00;99.90;;;;;;5096742;28;20892;-89
2020/12/02 02:14:54;;;;;;;34.60;19.00;;;7.00;99.90;;;;;;5022712;28;20452;-88
2020/12/02 02:17:23;;;;;;;27.67;17.57;;;7.00;99.90;;;;;;5075251;28;20476;-89
2020/12/02 02:19:50;;;;;;;30.03;18.60;;;7.00;99.90;;;;;;5076595;28;20485;-89
2020/12/02 02:22:17;;;;;;;24.53;16.57;;;7.00;99.90;;;;;;5076093;28;21048;-89
2020/12/02 02:24:48;;;;;;;37.77;19.80;;;7.00;99.90;;;;;;5092304;28;20839;-89
2020/12/02 02:27:17;;;;;;;27.33;16.83;;;6.90;99.90;;;;;;5096289;28;20430;-89
2020/12/02 02:29:46;;;;;;;39.43;20.53;;;6.80;99.90;;;;;;5057372;28;20447;-88
2020/12/02 02:32:15;;;;;;;28.83;18.50;;;6.80;99.90;;;;;;5055554;28;20557;-89
2020/12/02 02:34:47;;;;;;;34.83;17.67;;;6.80;99.90;;;;;;5070957;28;21210;-88
2020/12/02 02:37:15;;;;;;;40.53;22.10;;;6.70;99.90;;;;;;5056268;28;20494;-89
2020/12/02 02:39:42;;;;;;;52.67;23.63;;;6.80;99.90;;;;;;5055838;28;20916;-89
2020/12/02 02:42:24;;;;;;;43.83;21.90;;;6.70;99.90;;;;;;5055856;28;20517;-86
2020/12/02 02:44:52;;;;;;;31.63;18.43;;;6.70;99.90;;;;;;5084270;28;20487;-86
2020/12/02 02:47:19;;;;;;;33.10;19.30;;;6.70;99.90;;;;;;5083182;28;20941;-88
2020/12/02 02:49:46;;;;;;;40.50;19.50;;;6.70;99.90;;;;;;5057973;28;20454;-89
2020/12/02 02:52:13;;;;;;;35.87;18.73;;;6.60;99.90;;;;;;5075578;28;20532;-89
2020/12/02 02:54:39;;;;;;;27.70;16.23;;;6.60;99.90;;;;;;5065551;28;20549;-89
2020/12/02 02:57:06;;;;;;;25.83;14.57;;;6.60;99.90;;;;;;5075315;28;20456;-89
2020/12/02 02:59:32;;;;;;;27.10;15.73;;;6.70;99.90;;;;;;5074512;28;20450;-89
2020/12/02 03:02:00;;;;;;;30.97;17.20;;;6.60;99.90;;;;;;5075943;28;20542;-89
2020/12/02 03:04:29;;;;;;;31.70;14.97;;;6.70;99.90;;;;;;5074472;28;20446;-87
2020/12/02 03:06:56;;;;;;;41.93;19.37;;;6.70;99.90;;;;;;5063012;28;20549;-88
2020/12/02 03:09:23;;;;;;;29.63;15.33;;;6.70;99.90;;;;;;5055554;28;20760;-88
2020/12/02 03:11:53;;;;;;;35.50;15.03;;;6.70;99.90;;;;;;5074698;28;20906;-87
2020/12/02 03:14:20;;;;;;;29.13;14.67;;;6.50;99.90;;;;;;5074051;28;20903;-87
2020/12/02 03:16:50;;;;;;;28.87;13.77;;;6.60;99.90;;;;;;5073519;28;20449;-87
2020/12/02 03:19:24;;;;;;;23.83;14.90;;;6.60;99.90;;;;;;5074519;28;20519;-88
2020/12/02 03:21:54;;;;;;;28.70;15.00;;;6.60;99.90;;;;;;5074161;28;20450;-87
2020/12/02 03:24:21;;;;;;;32.37;17.07;;;6.70;99.90;;;;;;5074092;28;20842;-87
2020/12/02 03:26:49;;;;;;;41.90;19.87;;;6.70;99.90;;;;;;5073910;28;20442;-87
2020/12/02 03:29:18;;;;;;;65.53;25.63;;;6.70;99.90;;;;;;5074053;28;20446;-87
2020/12/02 03:31:44;;;;;;;30.33;17.70;;;6.70;99.90;;;;;;5073608;28;20777;-88
2020/12/02 03:34:14;;;;;;;45.47;22.50;;;6.70;99.90;;;;;;5074322;28;20503;-88
2020/12/02 03:36:41;;;;;;;32.60;17.33;;;6.60;99.90;;;;;;5078005;28;20453;-88
2020/12/02 03:39:10;;;;;;;31.17;18.03;;;6.60;99.90;;;;;;5073797;28;20776;-87
2020/12/02 03:41:38;;;;;;;43.63;21.43;;;6.60;99.90;;;;;;5074248;28;20503;-89
2020/12/02 03:44:04;;;;;;;41.53;19.37;;;6.60;99.90;;;;;;5074426;28;20458;-88
2020/12/02 03:46:31;;;;;;;31.50;18.53;;;6.60;99.90;;;;;;5075188;28;20451;-87
2020/12/02 03:48:59;;;;;;;41.07;21.10;;;6.70;99.90;;;;;;5072742;28;20448;-88
2020/12/02 03:51:29;;;;;;;46.10;20.57;;;6.70;99.90;;;;;;5073832;28;20478;-87
2020/12/02 03:53:56;;;;;;;49.33;24.63;;;6.70;99.90;;;;;;5091524;28;20928;-88
2020/12/02 03:56:23;;;;;;;35.40;18.97;;;6.50;99.90;;;;;;5070278;28;20837;-88
2020/12/02 03:58:49;;;;;;;30.60;16.70;;;6.50;99.90;;;;;;5068560;28;20504;-87
2020/12/02 04:01:16;;;;;;;24.80;16.03;;;6.60;99.90;;;;;;5074774;28;20451;-88
2020/12/02 04:03:42;;;;;;;25.50;15.30;;;6.60;99.90;;;;;;5073767;28;20460;-87
2020/12/02 04:06:10;;;;;;;32.83;17.90;;;6.60;99.90;;;;;;5091021;28;20443;-88
2020/12/02 04:08:37;;;;;;;42.30;19.83;;;6.60;99.90;;;;;;5095039;28;20486;-88
2020/12/02 04:11:06;;;;;;;41.30;20.47;;;6.60;99.90;;;;;;5094742;28;20492;-88
2020/12/02 04:13:33;;;;;;;36.60;18.20;;;6.60;99.90;;;;;;5090452;28;20496;-88
2020/12/02 04:16:00;;;;;;;41.90;19.30;;;6.60;99.90;;;;;;5074420;28;20515;-88
2020/12/02 04:18:30;;;;;;;48.47;23.00;;;6.60;99.90;;;;;;5085393;28;20464;-88
2020/12/02 04:20:56;;;;;;;41.27;20.53;;;6.60;99.90;;;;;;5093933;28;20449;-88
2020/12/02 04:23:25;;;;;;;41.10;21.10;;;6.60;99.90;;;;;;5094226;28;20446;-87
2020/12/02 04:25:51;;;;;;;32.93;18.77;;;6.60;99.90;;;;;;5082415;28;20450;-89
2020/12/02 04:28:19;;;;;;;33.50;18.13;;;6.50;99.90;;;;;;5077942;28;20555;-89
2020/12/02 04:30:47;;;;;;;43.97;21.07;;;6.50;99.90;;;;;;5077665;28;20478;-86
2020/12/02 04:33:15;;;;;;;56.63;24.33;;;6.60;99.90;;;;;;5084066;28;20449;-87
2020/12/02 04:35:41;;;;;;;38.93;21.90;;;6.50;99.90;;;;;;5080692;28;20799;-87
2020/12/02 04:38:10;;;;;;;51.07;22.87;;;6.50;99.90;;;;;;5080558;28;20509;-87
2020/12/02 04:40:41;;;;;;;35.27;19.77;;;6.50;99.90;;;;;;5077848;28;20475;-87
2020/12/02 04:43:16;;;;;;;32.67;18.47;;;6.50;99.90;;;;;;5079261;28;20434;-85
2020/12/02 04:45:46;;;;;;;35.37;18.27;;;6.50;99.90;;;;;;5077510;28;20465;-88
2020/12/02 04:48:15;;;;;;;35.43;19.17;;;6.50;99.90;;;;;;5077864;28;20469;-88
2020/12/02 04:50:42;;;;;;;33.53;19.10;;;6.50;99.90;;;;;;5074475;28;20496;-87
2020/12/02 04:53:14;;;;;;;38.97;19.10;;;6.50;99.90;;;;;;5086504;28;20450;-87
2020/12/02 04:55:43;;;;;;;35.27;18.30;;;6.50;99.90;;;;;;5074024;28;20651;-88
2020/12/02 04:58:22;;;;;;;29.13;15.80;;;6.60;99.90;;;;;;5068586;28;20453;-87
2020/12/02 05:00:50;;;;;;;52.03;23.93;;;6.60;99.90;;;;;;5072952;28;20715;-87
2020/12/02 05:03:17;;;;;;;35.03;18.03;;;6.50;99.90;;;;;;5077183;28;20926;-87
2020/12/02 05:05:44;;;;;;;33.20;16.43;;;6.50;99.90;;;;;;5089276;28;20983;-86
2020/12/02 05:08:23;;;;;;;31.73;17.80;;;6.50;99.90;;;;;;5086404;28;20473;-87
2020/12/02 05:10:51;;;;;;;28.17;16.40;;;6.60;99.90;;;;;;5079921;28;20555;-87
2020/12/02 05:13:17;;;;;;;32.67;17.23;;;6.60;99.90;;;;;;5076362;28;20440;-87
2020/12/02 05:15:44;;;;;;;36.77;16.33;;;6.60;99.90;;;;;;5075588;28;20496;-86
2020/12/02 05:18:22;;;;;;;39.30;19.40;;;6.50;99.90;;;;;;5075819;28;20451;-87
2020/12/02 05:21:18;;;;;;;29.40;15.50;;;6.60;99.90;;;;;;5080508;28;20493;-87
2020/12/02 05:24:04;;;;;;;32.33;18.83;;;6.60;99.90;;;;;;5068535;28;20520;-89
2020/12/02 05:26:33;;;;;;;23.40;14.27;;;6.60;99.90;;;;;;5089805;28;20445;-87
2020/12/02 05:29:04;;;;;;;23.37;14.47;;;6.60;99.90;;;;;;5086414;28;20462;-87
2020/12/02 05:31:34;;;;;;;34.23;17.00;;;6.60;99.90;;;;;;5076888;28;20859;-88
2020/12/02 05:34:12;;;;;;;20.97;13.90;;;6.60;99.90;;;;;;5084860;28;20484;-87
2020/12/02 05:36:44;;;;;;;20.77;13.73;;;6.60;99.90;;;;;;5077141;28;20455;-85
2020/12/02 05:39:35;;;;;;;18.07;11.27;;;6.60;99.90;;;;;;5076579;28;20483;-86
2020/12/02 05:42:11;;;;;;;17.47;12.10;;;6.60;99.90;;;;;;5075864;28;20503;-85
2020/12/02 05:44:41;;;;;;;17.60;10.77;;;6.60;99.90;;;;;;5074862;28;20482;-85
2020/12/02 05:47:12;;;;;;;23.27;13.20;;;6.60;99.90;;;;;;5092580;28;20490;-85
2020/12/02 05:49:52;;;;;;;21.23;10.43;;;6.50;99.90;;;;;;5082598;28;20455;-85
2020/12/02 05:52:21;;;;;;;17.27;9.43;;;6.40;99.90;;;;;;5075745;28;20532;-86
2020/12/02 05:54:48;;;;;;;17.10;10.10;;;6.40;99.90;;;;;;5074964;28;20723;-85
2020/12/02 05:57:19;;;;;;;18.23;10.67;;;6.40;99.90;;;;;;5062453;28;20446;-89
2020/12/02 05:59:49;;;;;;;19.27;11.70;;;6.40;99.90;;;;;;5064507;28;20451;-89
2020/12/02 06:02:18;;;;;;;22.40;13.10;;;6.40;99.90;;;;;;5058400;28;20838;-89
2020/12/02 06:04:51;;;;;;;24.73;13.17;;;6.40;99.90;;;;;;5056390;28;20513;-89
2020/12/02 06:07:17;;;;;;;28.67;16.07;;;6.40;99.90;;;;;;5056642;28;20485;-88
2020/12/02 06:09:47;;;;;;;31.50;16.90;;;6.40;99.90;;;;;;5060627;28;20455;-86
2020/12/02 06:12:16;;;;;;;30.57;17.67;;;6.40;99.90;;;;;;5075097;28;20860;-84
2020/12/02 06:14:42;;;;;;;27.50;17.17;;;6.40;99.90;;;;;;5085654;28;20514;-83
2020/12/02 06:17:13;;;;;;;34.37;17.80;;;6.40;99.90;;;;;;5095578;28;20900;-84
2020/12/02 06:19:50;;;;;;;38.53;22.33;;;6.30;99.90;;;;;;5094597;28;20771;-85
2020/12/02 06:22:33;;;;;;;41.17;21.07;;;6.20;99.90;;;;;;5095372;28;20436;-84
2020/12/02 06:25:00;;;;;;;29.67;15.57;;;6.10;99.90;;;;;;5076676;28;20823;-83
2020/12/02 06:27:42;;;;;;;25.50;16.17;;;6.20;99.90;;;;;;5074710;28;20562;-84
2020/12/02 06:30:21;;;;;;;25.80;15.50;;;6.20;99.90;;;;;;5071256;28;20465;-84
2020/12/02 06:33:13;;;;;;;29.87;16.67;;;6.20;99.90;;;;;;5075003;28;20462;-85
2020/12/02 06:35:41;;;;;;;26.47;13.87;;;6.20;99.90;;;;;;5069888;28;20494;-85
2020/12/02 06:38:29;;;;;;;22.97;14.47;;;6.20;99.90;;;;;;5074065;28;20455;-84
2020/12/02 06:41:26;;;;;;;20.77;12.97;;;6.20;99.90;;;;;;5071510;28;20510;-84
2020/12/02 06:43:56;;;;;;;20.03;13.37;;;6.20;99.90;;;;;;5090082;28;20475;-85
2020/12/02 06:47:07;;;;;;;19.03;12.30;;;6.20;99.90;;;;;;5074340;28;20482;-84
2020/12/02 06:49:39;;;;;;;24.97;15.07;;;6.10;99.90;;;;;;5081141;28;20442;-85
2020/12/02 06:52:09;;;;;;;23.40;14.60;;;6.20;99.90;;;;;;5074806;28;20486;-87
2020/12/02 06:54:38;;;;;;;27.97;17.20;;;6.10;99.90;;;;;;5074839;28;20432;-88
2020/12/02 06:57:24;;;;;;;31.07;18.80;;;6.10;99.90;;;;;;5074587;28;20519;-87
2020/12/02 06:59:54;;;;;;;29.27;17.50;;;6.10;99.90;;;;;;5074623;28;20441;-87
2020/12/02 07:02:53;;;;;;;26.27;16.07;;;6.10;99.90;;;;;;5064405;28;20467;-88
2020/12/02 07:05:26;;;;;;;36.90;19.27;;;6.10;99.90;;;;;;5092262;28;20450;-87
2020/12/02 07:08:16;;;;;;;28.07;16.87;;;6.00;99.90;;;;;;5095866;28;20978;-87
2020/12/02 07:11:02;;;;;;;31.00;17.90;;;6.10;99.90;;;;;;5081343;28;20449;-87
2020/12/02 07:13:31;;;;;;;34.63;21.53;;;6.10;99.90;;;;;;5075020;28;20767;-87
2020/12/02 07:15:58;;;;;;;37.27;21.20;;;6.10;99.90;;;;;;5074133;28;20631;-87
2020/12/02 07:18:26;;;;;;;32.13;20.50;;;6.00;99.90;;;;;;5074298;28;20451;-87
2020/12/02 07:21:04;;;;;;;37.77;20.97;;;6.00;99.90;;;;;;5073974;28;20454;-87
2020/12/02 07:23:32;;;;;;;41.83;23.33;;;6.00;99.90;;;;;;5075788;28;20434;-87
2020/12/02 07:26:01;;;;;;;36.40;20.80;;;6.00;99.90;;;;;;5091915;28;20453;-86
2020/12/02 07:28:27;;;;;;;35.67;21.27;;;6.10;99.90;;;;;;5074662;28;20447;-87
2020/12/02 07:30:54;;;;;;;40.13;22.47;;;6.00;99.90;;;;;;5074746;28;20830;-88
2020/12/02 07:33:24;;;;;;;36.77;21.83;;;5.90;99.90;;;;;;5074698;28;20455;-87
2020/12/02 07:36:19;;;;;;;38.13;21.10;;;5.90;99.90;;;;;;5073744;28;20450;-87
2020/12/02 07:38:46;;;;;;;32.90;19.27;;;5.90;99.90;;;;;;5013353;28;20453;-87
2020/12/02 07:41:16;;;;;;;32.00;20.50;;;5.90;99.90;;;;;;5075793;28;20477;-87
2020/12/02 07:43:47;;;;;;;36.97;22.20;;;5.80;99.90;;;;;;5074295;28;20519;-87
2020/12/02 07:46:14;;;;;;;32.07;20.40;;;5.90;99.90;;;;;;5074404;28;20506;-88
2020/12/02 07:48:41;;;;;;;32.00;20.70;;;5.90;99.90;;;;;;5072111;28;20699;-87
2020/12/02 07:51:13;;;;;;;40.37;21.80;;;5.80;99.90;;;;;;5064124;28;20502;-87
2020/12/02 07:53:48;;;;;;;40.63;24.53;;;5.80;99.90;;;;;;5073183;28;20439;-88
2020/12/02 07:56:25;;;;;;;33.80;21.10;;;5.80;99.90;;;;;;5074136;28;20962;-88
2020/12/02 07:58:54;;;;;;;30.53;18.87;;;5.80;99.90;;;;;;5073776;28;20445;-87
2020/12/02 08:01:54;;;;;;;33.67;21.80;;;5.80;99.90;;;;;;5072167;28;21021;-87
2020/12/02 08:04:35;;;;;;;39.30;24.50;;;5.80;99.90;;;;;;5055656;28;20458;-87
2020/12/02 08:07:04;;;;;;;32.67;20.53;;;5.80;99.90;;;;;;5081818;28;20490;-89
2020/12/02 08:09:40;;;;;;;33.23;22.03;;;5.80;99.90;;;;;;5079294;28;20437;-89
2020/12/02 08:12:11;;;;;;;33.50;21.67;;;5.80;99.90;;;;;;5061172;28;20952;-88
2020/12/02 08:14:41;;;;;;;36.63;23.10;;;5.80;99.90;;;;;;5078550;28;20493;-89
2020/12/02 08:17:20;;;;;;;35.47;23.10;;;5.90;99.90;;;;;;5079434;28;20439;-89
2020/12/02 08:19:49;;;;;;;38.37;25.43;;;5.90;99.90;;;;;;5078698;28;20435;-88
2020/12/02 08:22:37;;;;;;;37.57;23.40;;;6.00;99.90;;;;;;5080197;28;20776;-88
2020/12/02 08:25:16;;;;;;;40.07;23.67;;;6.00;99.90;;;;;;5070467;28;20441;-88
2020/12/02 08:27:47;;;;;;;39.90;26.70;;;6.00;99.90;;;;;;5077912;28;20437;-88
2020/12/02 08:30:19;;;;;;;38.00;23.90;;;6.10;99.90;;;;;;5065497;28;20472;-90
2020/12/02 08:32:51;;;;;;;41.40;23.90;;;6.10;99.90;;;;;;5072127;28;20968;-88
2020/12/02 08:35:19;;;;;;;35.47;22.00;;;6.00;99.90;;;;;;5079458;28;20449;-91
2020/12/02 08:37:52;;;;;;;28.83;18.47;;;6.10;99.90;;;;;;5083038;28;20479;-91
2020/12/02 08:40:28;;;;;;;23.60;15.83;;;6.10;99.90;;;;;;5072871;28;20454;-88
2020/12/02 08:43:14;;;;;;;21.83;15.60;;;6.10;99.90;;;;;;5058808;28;20451;-89
2020/12/02 08:45:52;;;;;;;27.37;17.13;;;6.10;99.90;;;;;;5059756;28;20462;-89
2020/12/02 08:48:19;;;;;;;26.60;16.53;;;6.20;99.90;;;;;;5065779;28;20459;-90
2020/12/02 08:50:45;;;;;;;19.80;13.70;;;6.10;99.90;;;;;;5062998;28;20451;-89
2020/12/02 08:53:12;;;;;;;24.30;14.70;;;6.20;99.90;;;;;;5094557;28;20485;-90
2020/12/02 08:55:43;;;;;;;25.10;16.03;;;6.20;99.90;;;;;;5079166;28;20450;-89
2020/12/02 08:58:09;;;;;;;20.07;13.27;;;6.10;99.90;;;;;;5068995;28;20961;-89
2020/12/02 09:00:36;;;;;;;25.67;15.07;;;6.20;99.90;;;;;;5079968;28;20527;-90
2020/12/02 09:03:03;;;;;;;24.90;16.67;;;6.20;99.90;;;;;;5060618;28;20455;-86
2020/12/02 09:05:31;;;;;;;25.63;15.50;;;6.30;99.90;;;;;;5057498;28;20911;-86
2020/12/02 09:07:58;;;;;;;24.73;15.77;;;6.30;99.90;;;;;;5074561;28;20494;-86
2020/12/02 09:10:25;;;;;;;23.13;16.80;;;6.30;99.90;;;;;;5077466;28;20536;-86
2020/12/02 09:12:52;;;;;;;22.50;15.17;;;6.40;99.90;;;;;;5076372;28;20976;-86
2020/12/02 09:15:19;;;;;;;20.70;14.40;;;6.50;99.90;;;;;;5078764;28;20490;-86
2020/12/02 09:17:45;;;;;;;18.90;13.70;;;6.50;99.90;;;;;;5076584;28;20469;-87
2020/12/02 09:20:12;;;;;;;20.73;14.00;;;6.60;99.90;;;;;;5079007;28;20507;-87
2020/12/02 09:22:38;;;;;;;19.60;14.30;;;6.60;99.90;;;;;;5078613;28;20880;-87
2020/12/02 09:25:05;;;;;;;20.80;13.30;;;6.60;99.90;;;;;;5081988;28;20448;-86
2020/12/02 09:27:34;;;;;;;23.57;15.47;;;6.60;99.90;;;;;;5084590;28;20447;-86
2020/12/02 09:30:01;;;;;;;21.23;13.93;;;6.50;99.90;;;;;;5078696;28;20477;-86
2020/12/02 09:32:28;;;;;;;23.23;15.00;;;6.50;99.90;;;;;;5080110;28;20482;-87
2020/12/02 09:34:54;;;;;;;20.00;13.63;;;6.60;99.90;;;;;;5092001;28;20506;-86
2020/12/02 09:37:21;;;;;;;18.43;13.37;;;6.60;99.90;;;;;;5080704;28;20456;-86
2020/12/02 09:39:48;;;;;;;25.20;15.70;;;6.70;99.90;;;;;;5077782;28;20918;-87
2020/12/02 09:42:29;;;;;;;23.23;15.33;;;6.60;99.90;;;;;;5077566;28;20494;-87
2020/12/02 09:45:04;;;;;;;28.63;16.00;;;6.60;99.90;;;;;;5093426;28;20772;-86
2020/12/02 09:47:30;;;;;;;30.03;16.57;;;6.40;99.90;;;;;;5077691;28;20890;-86
2020/12/02 09:49:57;;;;;;;20.90;15.27;;;6.40;99.90;;;;;;5077713;28;20511;-87
2020/12/02 09:52:40;;;;;;;23.17;15.00;;;6.40;99.90;;;;;;5076988;28;20480;-87
2020/12/02 09:55:14;;;;;;;26.23;17.80;;;6.50;99.90;;;;;;5081377;28;20442;-86
2020/12/02 09:57:40;;;;;;;23.80;16.07;;;6.40;99.90;;;;;;5078660;28;20438;-87
2020/12/02 10:00:10;;;;;;;22.00;14.93;;;6.40;99.90;;;;;;5077288;28;20453;-86
2020/12/02 10:03:04;;;;;;;23.87;16.53;;;6.50;99.90;;;;;;5077838;28;20446;-86
2020/12/02 10:05:55;;;;;;;26.27;15.80;;;6.60;99.90;;;;;;5077760;28;20488;-87
2020/12/02 10:08:35;;;;;;;20.30;14.93;;;6.60;99.90;;;;;;5077866;28;20477;-86
2020/12/02 10:11:04;;;;;;;21.33;15.23;;;6.70;99.90;;;;;;5081035;28;20496;-87
2020/12/02 10:14:00;;;;;;;22.80;15.93;;;6.80;99.90;;;;;;5081057;28;20445;-87
2020/12/02 10:16:35;;;;;;;27.97;17.07;;;6.80;99.90;;;;;;5079666;28;20497;-87
2020/12/02 10:19:28;;;;;;;28.07;14.77;;;6.90;99.90;;;;;;5079079;28;20468;-88
2020/12/02 10:22:17;;;;;;;20.70;13.73;;;6.90;99.90;;;;;;5076370;28;20899;-87
2020/12/02 10:25:16;;;;;;;26.93;15.87;;;6.80;99.90;;;;;;5006160;28;20497;-87
2020/12/02 10:28:22;;;;;;;25.20;15.77;;;6.80;99.90;;;;;;5065676;28;20472;-87
2020/12/02 10:31:09;;;;;;;21.50;13.90;;;6.80;99.90;;;;;;5038229;28;20485;-88
2020/12/02 10:33:54;;;;;;;19.40;13.70;;;6.90;99.90;;;;;;5080149;28;20446;-88
2020/12/02 10:36:24;;;;;;;21.27;14.57;;;7.00;99.90;;;;;;5087152;28;20439;-88
2020/12/02 10:38:54;;;;;;;26.10;14.70;;;7.00;99.90;;;;;;5076420;28;20518;-89
2020/12/02 10:41:32;;;;;;;21.47;14.30;;;6.80;99.90;;;;;;5091053;28;20487;-89
2020/12/02 10:44:13;;;;;;;21.93;15.57;;;6.80;99.90;;;;;;5078142;28;20470;-88
2020/12/02 10:46:57;;;;;;;28.03;17.90;;;6.80;99.90;;;;;;5075859;28;20483;-89
2020/12/02 10:49:28;;;;;;;25.13;14.93;;;6.80;99.90;;;;;;5075202;28;20504;-89
2020/12/02 10:51:57;;;;;;;22.80;14.77;;;6.90;99.90;;;;;;5093291;28;20474;-88
2020/12/02 10:54:27;;;;;;;26.20;13.40;;;6.90;99.90;;;;;;5078911;28;20492;-89
2020/12/02 10:56:57;;;;;;;23.53;16.30;;;7.10;99.90;;;;;;5068825;28;20472;-88
2020/12/02 10:59:25;;;;;;;20.53;14.10;;;7.10;99.90;;;;;;5062481;28;20837;-89
2020/12/02 11:01:51;;;;;;;22.93;16.37;;;7.10;99.90;;;;;;5070149;28;20520;-89
2020/12/02 11:04:20;;;;;;;19.80;13.67;;;7.20;99.90;;;;;;5055675;28;20447;-89
2020/12/02 11:07:04;;;;;;;20.57;15.37;;;7.20;99.90;;;;;;5055090;28;20471;-90
2020/12/02 11:09:46;;;;;;;22.33;15.50;;;7.20;99.90;;;;;;5065269;28;20446;-88
2020/12/02 11:12:40;;;;;;;21.77;15.73;;;7.20;99.90;;;;;;5069920;28;20474;-89
2020/12/02 11:15:39;;;;;;;19.83;13.33;;;7.30;99.90;;;;;;5067849;28;20463;-89
2020/12/02 11:18:42;;;;;;;18.63;13.90;;;7.30;99.90;;;;;;5061231;28;20466;-88
2020/12/02 11:21:23;;;;;;;19.83;14.83;;;7.40;99.90;;;;;;5063103;28;20492;-90
2020/12/02 11:24:11;;;;;;;20.87;14.17;;;7.40;99.90;;;;;;5090329;28;20495;-88
2020/12/02 11:26:38;;;;;;;21.37;14.40;;;7.50;99.90;;;;;;5059025;28;20459;-89
2020/12/02 11:29:08;;;;;;;18.30;13.33;;;7.50;99.90;;;;;;5073411;28;20458;-89
2020/12/02 11:32:07;;;;;;;22.53;15.57;;;7.50;99.90;;;;;;5069072;28;20509;-90
2020/12/02 11:34:49;;;;;;;17.80;12.87;;;7.50;99.90;;;;;;5078379;28;20454;-87
2020/12/02 11:37:23;;;;;;;21.70;14.70;;;7.60;99.90;;;;;;5083648;28;20435;-89
2020/12/02 11:40:03;;;;;;;21.40;15.70;;;7.70;99.90;;;;;;5100220;28;20442;-86
2020/12/02 11:42:40;;;;;;;19.20;13.93;;;7.70;99.90;;;;;;5102054;28;20468;-86
2020/12/02 11:45:14;;;;;;;22.47;16.83;;;7.70;99.90;;;;;;5099356;28;20457;-89
2020/12/02 11:48:02;;;;;;;21.40;14.60;;;7.60;99.90;;;;;;5080269;28;20471;-88
2020/12/02 11:50:31;;;;;;;23.90;16.37;;;7.50;99.90;;;;;;5080016;28;20862;-89
2020/12/02 11:53:06;;;;;;;25.50;16.47;;;7.50;99.90;;;;;;5080001;28;20479;-89
2020/12/02 11:55:36;;;;;;;22.87;16.40;;;7.40;99.90;;;;;;5080160;28;20434;-89
2020/12/02 11:58:06;;;;;;;23.10;16.53;;;7.50;99.90;;;;;;5080015;28;20447;-89
2020/12/02 12:00:33;;;;;;;27.83;18.17;;;7.50;99.90;;;;;;5098922;28;20507;-89
2020/12/02 12:03:25;;;;;;;24.77;17.10;;;7.40;99.90;;;;;;5086095;28;20455;-90
2020/12/02 12:06:01;;;;;;;24.53;17.63;;;7.50;99.90;;;;;;5076123;28;20749;-90
2020/12/02 12:08:37;;;;;;;28.80;21.13;;;7.30;99.90;;;;;;5069061;28;20444;-88
2020/12/02 12:11:11;;;;;;;33.90;22.63;;;7.30;99.90;;;;;;5074034;28;20439;-89
2020/12/02 12:13:43;;;;;;;31.13;20.10;;;7.30;99.90;;;;;;5068476;28;20588;-90
2020/12/02 12:16:17;;;;;;;28.93;19.87;;;7.30;99.90;;;;;;5084851;28;20651;-91
2020/12/02 12:18:53;;;;;;;29.87;18.57;;;7.10;99.90;;;;;;5084883;28;20492;-90
2020/12/02 12:21:29;;;;;;;31.10;21.17;;;7.10;99.90;;;;;;5078239;28;20454;-91
2020/12/02 12:24:00;;;;;;;27.37;18.17;;;7.00;99.90;;;;;;5073046;28;20553;-90
2020/12/02 12:26:33;;;;;;;27.03;17.43;;;7.10;99.90;;;;;;5074144;28;20448;-92
2020/12/02 12:29:00;;;;;;;34.27;22.03;;;7.10;99.90;;;;;;5082237;28;20451;-91
2020/12/02 12:31:48;;;;;;;26.20;18.93;;;7.00;99.90;;;;;;5088605;28;20451;-90
2020/12/02 12:34:31;;;;;;;27.53;18.40;;;6.90;99.90;;;;;;5070809;28;20484;-90
2020/12/02 12:37:04;;;;;;;31.03;20.13;;;6.90;99.90;;;;;;5073556;28;20453;-90
2020/12/02 12:39:38;;;;;;;30.27;19.10;;;6.90;99.90;;;;;;5088906;28;20472;-89
2020/12/02 12:42:12;;;;;;;31.47;21.30;;;6.80;99.90;;;;;;5071128;28;20488;-90
2020/12/02 12:44:42;;;;;;;32.60;19.50;;;6.70;99.90;;;;;;5106883;28;20584;-91
2020/12/02 12:47:20;;;;;;;35.27;21.70;;;6.70;99.90;;;;;;5088984;28;20473;-91
2020/12/02 12:49:46;;;;;;;38.23;23.13;;;6.60;99.90;;;;;;5077788;28;20450;-90
2020/12/02 12:52:15;;;;;;;30.27;20.23;;;6.40;99.90;;;;;;5089256;28;20512;-91
2020/12/02 12:54:42;;;;;;;33.83;20.90;;;6.50;99.90;;;;;;5092391;28;20456;-90
2020/12/02 12:57:15;;;;;;;29.60;19.53;;;6.60;99.90;;;;;;5080479;28;20447;-89
2020/12/02 12:59:42;;;;;;;28.33;19.30;;;6.70;99.90;;;;;;5087344;28;20455;-90
2020/12/02 13:02:19;;;;;;;33.47;20.77;;;6.60;99.90;;;;;;5087873;28;20862;-89
2020/12/02 13:04:48;;;;;;;30.23;19.33;;;6.70;99.90;;;;;;5082214;28;20434;-89
2020/12/02 13:07:19;;;;;;;32.43;19.33;;;6.70;99.90;;;;;;5082150;28;20452;-88